createdAt,value
2022-08-12T00:02:04.053Z,15.10
2022-08-12T00:04:52.721Z,15.00
2022-08-12T00:07:38.584Z,15.00
2022-08-12T00:10:24.571Z,14.90
2022-08-12T00:13:10.064Z,14.70
2022-08-12T00:15:56.023Z,14.70
2022-08-12T00:18:41.617Z,14.70
2022-08-12T00:21:26.938Z,14.80
2022-08-12T00:24:13.010Z,14.80
2022-08-12T00:26:59.666Z,14.70
2022-08-12T00:29:47.964Z,14.70
2022-08-12T00:32:36.131Z,14.50
2022-08-12T00:35:40.505Z,14.50
2022-08-12T00:38:25.729Z,14.50
2022-08-12T00:41:12.306Z,14.40
2022-08-12T00:43:42.857Z,14.50
2022-08-12T00:46:28.068Z,14.40
2022-08-12T00:48:56.373Z,14.40
2022-08-12T00:51:44.558Z,14.40
2022-08-12T00:54:11.364Z,14.30
2022-08-12T00:56:39.361Z,14.40
2022-08-12T00:59:06.642Z,14.20
2022-08-12T01:02:02.360Z,14.30
2022-08-12T01:04:43.647Z,14.20
2022-08-12T01:07:32.038Z,14.20
2022-08-12T01:10:18.352Z,14.30
2022-08-12T01:12:54.694Z,14.20
2022-08-12T01:15:34.863Z,14.20
2022-08-12T01:18:05.402Z,14.10
2022-08-12T01:20:57.026Z,14.10
2022-08-12T01:23:44.627Z,14.00
2022-08-12T01:26:17.492Z,13.90
2022-08-12T01:28:46.531Z,13.90
2022-08-12T01:31:16.983Z,13.90
2022-08-12T01:33:52.939Z,13.60
2022-08-12T01:36:27.176Z,13.60
2022-08-12T01:38:57.542Z,13.70
2022-08-12T01:41:30.873Z,13.70
2022-08-12T01:44:03.026Z,13.60
2022-08-12T01:46:48.111Z,13.60
2022-08-12T01:49:21.792Z,13.60
2022-08-12T01:52:15.142Z,13.60
2022-08-12T01:54:47.107Z,13.50
2022-08-12T01:57:57.852Z,13.50
2022-08-12T02:00:13.535Z,13.50
2022-08-12T02:02:48.512Z,13.50
2022-08-12T02:06:01.960Z,13.40
2022-08-12T02:09:07.160Z,13.30
2022-08-12T02:11:44.110Z,13.30
2022-08-12T02:14:43.559Z,13.10
2022-08-12T02:17:55.042Z,13.20
2022-08-12T02:20:51.622Z,13.20
2022-08-12T02:23:23.221Z,13.10
2022-08-12T02:25:55.164Z,13.20
2022-08-12T02:28:22.150Z,13.10
2022-08-12T02:30:49.112Z,13.00
2022-08-12T02:33:18.534Z,13.00
2022-08-12T02:35:45.353Z,13.00
2022-08-12T02:38:12.662Z,13.00
2022-08-12T02:40:42.816Z,13.00
2022-08-12T02:43:24.021Z,13.00
2022-08-12T02:45:56.603Z,12.90
2022-08-12T02:48:46.746Z,12.80
2022-08-12T02:51:17.451Z,12.80
2022-08-12T02:53:45.443Z,12.80
2022-08-12T02:56:31.345Z,12.80
2022-08-12T02:58:59.985Z,12.80
2022-08-12T03:01:34.172Z,12.80
2022-08-12T03:04:04.217Z,12.80
2022-08-12T03:07:09.500Z,12.90
2022-08-12T03:10:04.757Z,12.90
2022-08-12T03:12:44.808Z,12.80
2022-08-12T03:15:18.124Z,12.70
2022-08-12T03:18:24.806Z,12.80
2022-08-12T03:20:49.202Z,12.90
2022-08-12T03:23:21.636Z,12.90
2022-08-12T03:25:59.412Z,12.80
2022-08-12T03:28:46.851Z,12.50
2022-08-12T03:31:13.642Z,12.40
2022-08-12T03:33:45.632Z,12.40
2022-08-12T03:36:29.664Z,12.40
2022-08-12T03:39:16.082Z,12.30
2022-08-12T03:42:13.731Z,12.20
2022-08-12T03:45:05.463Z,12.30
2022-08-12T03:47:56.994Z,12.30
2022-08-12T03:50:43.554Z,12.40
2022-08-12T03:53:29.143Z,12.40
2022-08-12T03:56:14.636Z,12.40
2022-08-12T03:59:00.292Z,12.30
2022-08-12T04:01:27.436Z,12.20
2022-08-12T04:03:54.718Z,12.20
2022-08-12T04:06:35.393Z,12.10
2022-08-12T04:09:16.627Z,12.00
2022-08-12T04:12:03.403Z,11.90
2022-08-12T04:14:30.679Z,11.90
2022-08-12T04:16:57.792Z,12.00
2022-08-12T04:19:26.419Z,12.10
2022-08-12T04:22:01.791Z,12.10
2022-08-12T04:24:35.197Z,12.10
2022-08-12T04:27:05.454Z,12.20
2022-08-12T04:30:31.510Z,12.20
2022-08-12T04:32:19.088Z,12.20
2022-08-12T04:34:45.910Z,12.20
2022-08-12T04:37:13.378Z,12.20
2022-08-12T04:39:40.891Z,12.10
2022-08-12T04:42:07.686Z,12.20
2022-08-12T04:44:34.369Z,12.20
2022-08-12T04:47:01.423Z,12.20
2022-08-12T04:49:30.231Z,12.30
2022-08-12T04:51:59.112Z,12.50
2022-08-12T04:54:27.892Z,12.50
2022-08-12T04:57:03.727Z,12.60
2022-08-12T04:59:32.635Z,12.60
2022-08-12T05:02:17.197Z,12.60
2022-08-12T05:04:52.163Z,12.60
2022-08-12T05:07:26.386Z,12.50
2022-08-12T05:10:00.007Z,12.50
2022-08-12T05:12:39.866Z,12.50
2022-08-12T05:15:16.795Z,12.40
2022-08-12T05:17:55.402Z,12.40
2022-08-12T05:20:25.942Z,12.40
2022-08-12T05:23:11.783Z,12.50
2022-08-12T05:25:50.911Z,12.70
2022-08-12T05:28:18.685Z,12.80
2022-08-12T05:30:46.401Z,12.60
2022-08-12T05:33:13.596Z,12.60
2022-08-12T05:35:42.829Z,12.80
2022-08-12T05:38:30.059Z,13.10
2022-08-12T05:40:56.980Z,13.40
2022-08-12T05:43:24.823Z,13.60
2022-08-12T05:45:51.488Z,13.70
2022-08-12T05:48:18.503Z,13.80
2022-08-12T05:50:46.400Z,14.20
2022-08-12T05:53:13.385Z,14.30
2022-08-12T05:55:42.189Z,14.80
2022-08-12T05:58:08.863Z,15.50
2022-08-12T06:00:36.173Z,16.50
2022-08-12T06:03:04.586Z,17.40
2022-08-12T06:05:43.263Z,17.70
2022-08-12T06:08:25.697Z,18.60
2022-08-12T06:10:53.017Z,19.20
2022-08-12T06:13:27.865Z,19.50
2022-08-12T06:16:15.287Z,20.10
2022-08-12T06:18:43.002Z,20.30
2022-08-12T06:21:21.544Z,21.00
2022-08-12T06:23:48.467Z,21.50
2022-08-12T06:26:16.635Z,22.20
2022-08-12T06:28:45.562Z,21.90
2022-08-12T06:31:25.951Z,21.70
2022-08-12T06:34:01.018Z,22.50
2022-08-12T06:36:41.791Z,23.20
2022-08-12T06:39:14.802Z,23.10
2022-08-12T06:42:04.965Z,23.40
2022-08-12T06:44:48.562Z,22.80
2022-08-12T06:47:16.733Z,22.50
2022-08-12T06:49:44.492Z,22.50
2022-08-12T06:52:11.332Z,23.00
2022-08-12T06:54:37.993Z,23.50
2022-08-12T06:58:05.702Z,24.70
2022-08-12T06:59:51.471Z,25.00
2022-08-12T07:02:20.546Z,25.50
2022-08-12T07:04:47.501Z,26.40
2022-08-12T07:07:14.254Z,26.20
2022-08-12T07:10:04.158Z,26.00
2022-08-12T07:12:29.304Z,26.80
2022-08-12T07:14:57.888Z,26.20
2022-08-12T07:17:25.959Z,26.00
2022-08-12T07:19:53.630Z,26.60
2022-08-12T07:22:23.066Z,26.70
2022-08-12T07:25:09.656Z,27.40
2022-08-12T07:27:44.049Z,27.90
2022-08-12T07:30:11.144Z,27.70
2022-08-12T07:32:38.094Z,28.20
2022-08-12T07:35:05.500Z,29.20
2022-08-12T07:37:34.971Z,30.40
2022-08-12T07:40:01.817Z,31.20
2022-08-12T07:42:29.599Z,32.10
2022-08-12T07:44:56.604Z,32.70
2022-08-12T07:47:25.080Z,32.70
2022-08-12T07:50:04.345Z,33.00
2022-08-12T07:52:34.823Z,33.20
2022-08-12T07:55:02.121Z,33.50
2022-08-12T07:57:28.901Z,34.10
2022-08-12T07:59:56.139Z,34.30
2022-08-12T08:02:26.785Z,35.00
2022-08-12T08:04:57.186Z,34.70
2022-08-12T08:07:25.799Z,34.70
2022-08-12T08:09:58.370Z,34.90
2022-08-12T08:12:48.108Z,35.20
2022-08-12T08:15:15.848Z,35.10
2022-08-12T08:18:02.510Z,34.70
2022-08-12T08:20:36.006Z,34.00
2022-08-12T08:23:07.890Z,33.60
2022-08-12T08:25:37.690Z,33.80
2022-08-12T08:28:17.038Z,34.00
2022-08-12T08:30:45.714Z,34.20
2022-08-12T08:33:22.738Z,34.00
2022-08-12T08:35:54.509Z,33.80
2022-08-12T08:38:32.261Z,33.70
2022-08-12T08:42:18.802Z,33.90
2022-08-12T08:44:12.841Z,34.50
2022-08-12T08:46:40.700Z,34.10
2022-08-12T08:49:08.114Z,34.50
2022-08-12T08:51:35.198Z,34.30
2022-08-12T08:54:01.909Z,34.50
2022-08-12T08:56:31.335Z,34.50
2022-08-12T08:58:58.794Z,33.90
2022-08-12T09:01:26.826Z,34.00
2022-08-12T09:05:08.432Z,34.70
2022-08-12T09:06:56.598Z,35.30
2022-08-12T09:09:23.493Z,35.40
2022-08-12T09:12:11.778Z,35.50
2022-08-12T09:14:47.042Z,35.30
2022-08-12T09:17:21.230Z,34.80
2022-08-12T09:19:56.916Z,34.80
2022-08-12T09:22:28.654Z,34.60
2022-08-12T09:24:59.802Z,35.30
2022-08-12T09:28:04.489Z,36.00
2022-08-12T09:30:16.174Z,36.80
2022-08-12T09:33:04.906Z,37.20
2022-08-12T09:35:44.087Z,36.50
2022-08-12T09:38:28.171Z,35.70
2022-08-12T09:42:07.991Z,36.10
2022-08-12T09:44:06.343Z,36.00
2022-08-12T09:47:00.393Z,36.40
2022-08-12T09:49:28.204Z,35.90
2022-08-12T09:51:55.449Z,35.80
2022-08-12T09:54:33.863Z,36.30
2022-08-12T09:58:46.096Z,37.20
2022-08-12T10:00:15.816Z,36.90
2022-08-12T10:03:32.734Z,37.30
2022-08-12T10:06:19.427Z,37.10
2022-08-12T10:08:52.480Z,36.60
2022-08-12T10:12:10.245Z,36.60
2022-08-12T10:14:34.377Z,37.00
2022-08-12T10:17:02.800Z,37.80
2022-08-12T10:19:36.478Z,38.60
2022-08-12T10:22:06.030Z,38.40
2022-08-12T10:25:04.671Z,38.10
2022-08-12T10:28:05.320Z,37.40
2022-08-12T10:30:41.734Z,37.90
2022-08-12T10:33:18.443Z,37.20
2022-08-12T10:35:46.139Z,36.50
2022-08-12T10:38:37.334Z,36.90
2022-08-12T10:41:58.358Z,37.20
2022-08-12T10:44:20.732Z,37.40
2022-08-12T10:46:52.720Z,37.60
2022-08-12T10:50:03.010Z,38.20
2022-08-12T10:52:34.940Z,38.90
2022-08-12T10:54:55.683Z,39.30
2022-08-12T10:58:13.545Z,38.50
2022-08-12T11:00:32.525Z,38.60
2022-08-12T11:04:26.005Z,38.40
2022-08-12T11:07:09.473Z,39.00
2022-08-12T11:08:42.219Z,38.60
2022-08-12T11:11:13.712Z,38.00
2022-08-12T11:13:48.882Z,38.80
2022-08-12T11:16:22.401Z,40.00
2022-08-12T11:18:55.368Z,39.50
2022-08-12T11:21:51.201Z,39.50
2022-08-12T11:24:30.753Z,38.80
2022-08-12T11:27:01.206Z,39.50
2022-08-12T11:30:05.962Z,41.10
2022-08-12T11:32:16.703Z,41.20
2022-08-12T11:34:53.691Z,41.30
2022-08-12T11:37:25.929Z,40.80
2022-08-12T11:42:39.787Z,40.50
2022-08-12T11:45:13.232Z,40.00
2022-08-12T11:47:44.139Z,40.00
2022-08-12T11:50:19.045Z,40.30
2022-08-12T11:52:55.981Z,40.50
2022-08-12T11:55:24.658Z,40.60
2022-08-12T11:58:14.608Z,38.70
2022-08-12T12:03:44.175Z,39.20
2022-08-12T12:06:17.890Z,39.10
2022-08-12T12:08:52.769Z,39.20
2022-08-12T12:11:23.651Z,39.80
2022-08-12T12:14:07.656Z,39.00
2022-08-12T12:16:39.951Z,38.20
2022-08-12T12:19:10.231Z,38.20
2022-08-12T12:21:48.783Z,38.80
2022-08-12T12:24:21.099Z,39.40
2022-08-12T12:27:00.527Z,39.10
2022-08-12T12:30:18.217Z,38.00
2022-08-12T12:32:16.170Z,37.40
2022-08-12T12:35:14.766Z,37.10
2022-08-12T12:38:04.463Z,36.90
2022-08-12T12:40:16.417Z,36.50
2022-08-12T12:42:57.781Z,36.00
2022-08-12T12:45:32.455Z,35.70
2022-08-12T12:48:08.243Z,35.90
2022-08-12T12:50:45.045Z,36.50
2022-08-12T12:54:06.057Z,37.00
2022-08-12T12:56:34.223Z,36.50
2022-08-12T12:59:03.505Z,36.00
2022-08-12T13:01:32.081Z,35.40
2022-08-12T13:04:02.977Z,35.60
2022-08-12T13:06:31.000Z,36.00
2022-08-12T13:09:03.180Z,35.60
2022-08-12T13:11:41.298Z,35.50
2022-08-12T13:14:13.063Z,35.30
2022-08-12T13:16:55.212Z,34.90
2022-08-12T13:19:37.272Z,34.40
2022-08-12T13:22:18.844Z,34.00
2022-08-12T13:24:54.507Z,34.30
2022-08-12T13:27:46.287Z,34.10
2022-08-12T13:30:17.617Z,34.40
2022-08-12T13:32:57.499Z,33.70
2022-08-12T13:35:33.196Z,33.60
2022-08-12T13:38:26.636Z,33.70
2022-08-12T13:40:58.308Z,33.60
2022-08-12T13:43:40.599Z,33.30
2022-08-12T13:46:12.453Z,33.30
2022-08-12T13:48:44.892Z,33.20
2022-08-12T13:51:12.471Z,32.90
2022-08-12T13:53:57.654Z,32.80
2022-08-12T13:56:29.917Z,32.80
2022-08-12T13:59:08.552Z,32.80
2022-08-12T14:01:40.600Z,32.80
2022-08-12T14:04:12.045Z,32.70
2022-08-12T14:06:43.457Z,32.70
2022-08-12T14:09:17.462Z,32.40
2022-08-12T14:11:51.301Z,32.40
2022-08-12T14:14:27.532Z,32.10
2022-08-12T14:17:05.702Z,32.00
2022-08-12T14:19:39.248Z,32.00
2022-08-12T14:22:17.328Z,32.00
2022-08-12T14:24:46.128Z,32.00
2022-08-12T14:27:13.841Z,31.80
2022-08-12T14:30:04.483Z,31.70
2022-08-12T14:32:35.788Z,31.60
2022-08-12T14:35:06.623Z,31.60
2022-08-12T14:37:58.008Z,31.70
2022-08-12T14:40:29.581Z,31.70
2022-08-12T14:42:58.298Z,31.60
2022-08-12T14:45:44.565Z,31.40
2022-08-12T14:48:14.845Z,31.30
2022-08-12T14:51:09.449Z,31.20
2022-08-12T14:57:05.791Z,31.00
2022-08-12T14:59:25.959Z,31.10
2022-08-12T15:01:54.647Z,31.00
2022-08-12T15:04:24.606Z,31.10
2022-08-12T15:06:53.130Z,31.00
2022-08-12T15:09:28.826Z,31.00
2022-08-12T15:12:03.801Z,31.00
2022-08-12T15:14:31.637Z,31.10
2022-08-12T15:17:00.604Z,31.00
2022-08-12T15:20:31.568Z,30.90
2022-08-12T15:22:36.048Z,30.70
2022-08-12T15:25:07.254Z,30.60
2022-08-12T15:28:05.643Z,30.50
2022-08-12T15:30:30.638Z,30.60
2022-08-12T15:32:59.595Z,30.60
2022-08-12T15:35:38.250Z,30.70
2022-08-12T15:38:19.387Z,30.70
2022-08-12T15:40:52.444Z,30.60
2022-08-12T15:43:51.317Z,30.50
2022-08-12T15:46:15.366Z,30.60
2022-08-12T15:48:46.768Z,30.50
2022-08-12T15:51:57.224Z,30.40
2022-08-12T15:54:30.962Z,30.40
2022-08-12T15:57:07.673Z,30.30
2022-08-12T16:00:00.808Z,30.30
2022-08-12T16:02:23.353Z,30.20
2022-08-12T16:04:54.043Z,30.30
2022-08-12T16:07:29.695Z,30.20
2022-08-12T16:10:06.748Z,30.10
2022-08-12T16:12:54.205Z,30.00
2022-08-12T16:15:24.992Z,30.00
2022-08-12T16:18:15.350Z,30.00
2022-08-12T16:20:42.091Z,29.90
2022-08-12T16:23:36.280Z,29.80
2022-08-12T16:26:06.115Z,29.80
2022-08-12T16:28:41.804Z,29.80
2022-08-12T16:31:13.280Z,29.70
2022-08-12T16:33:59.950Z,29.70
2022-08-12T16:36:28.659Z,29.70
2022-08-12T16:38:55.329Z,29.70
2022-08-12T16:41:22.578Z,29.70
2022-08-12T16:43:50.298Z,29.60
2022-08-12T16:46:31.951Z,29.60
2022-08-12T16:49:08.932Z,29.70
2022-08-12T16:51:46.936Z,29.60
2022-08-12T16:54:16.553Z,29.60
2022-08-12T16:56:54.640Z,29.50
2022-08-12T16:59:26.290Z,29.40
2022-08-12T17:01:58.586Z,29.30
2022-08-12T17:04:25.466Z,29.30
2022-08-12T17:06:52.542Z,29.30
2022-08-12T17:09:19.673Z,29.20
2022-08-12T17:11:49.316Z,29.20
2022-08-12T17:14:17.050Z,29.20
2022-08-12T17:16:48.336Z,29.20
2022-08-12T17:19:16.919Z,29.10
2022-08-12T17:22:01.311Z,29.10
2022-08-12T17:24:32.269Z,29.00
2022-08-12T17:27:00.630Z,29.00
2022-08-12T17:30:01.120Z,28.90
2022-08-12T17:32:15.718Z,28.80
2022-08-12T17:35:11.165Z,28.70
2022-08-12T17:37:39.194Z,28.70
2022-08-12T17:40:15.359Z,28.60
2022-08-12T17:43:01.311Z,28.60
2022-08-12T17:45:34.030Z,28.60
2022-08-12T17:48:11.817Z,28.50
2022-08-12T17:50:53.040Z,28.40
2022-08-12T17:53:20.251Z,28.30
2022-08-12T17:55:50.323Z,28.30
2022-08-12T17:58:21.543Z,28.20
2022-08-12T18:00:50.545Z,28.10
2022-08-12T18:03:58.031Z,27.90
2022-08-12T18:06:08.544Z,27.90
2022-08-12T18:08:54.340Z,27.70
2022-08-12T18:12:06.693Z,27.60
2022-08-12T18:14:30.885Z,27.50
2022-08-12T18:17:01.591Z,27.30
2022-08-12T18:19:34.114Z,27.20
2022-08-12T18:22:21.667Z,27.00
2022-08-12T18:24:49.360Z,26.90
2022-08-12T18:27:44.387Z,26.70
2022-08-12T18:30:13.420Z,26.50
2022-08-12T18:32:58.924Z,26.40
2022-08-12T18:35:47.134Z,26.10
2022-08-12T18:38:19.405Z,25.90
2022-08-12T18:41:07.419Z,25.60
2022-08-12T18:43:57.575Z,25.50
2022-08-12T18:46:33.231Z,25.20
2022-08-12T18:49:16.999Z,25.00
2022-08-12T18:51:55.635Z,24.80
2022-08-12T18:54:34.855Z,24.60
2022-08-12T18:57:06.981Z,24.40
2022-08-12T19:00:01.815Z,24.10
2022-08-12T19:02:40.594Z,23.90
2022-08-12T19:05:10.493Z,23.70
2022-08-12T19:08:01.754Z,23.50
2022-08-12T19:10:31.187Z,23.40
2022-08-12T19:13:23.249Z,23.30
2022-08-12T19:15:53.207Z,23.00
2022-08-12T19:18:22.005Z,22.80
2022-08-12T19:20:50.389Z,22.70
2022-08-12T19:23:21.274Z,22.70
2022-08-12T19:26:00.673Z,22.60
2022-08-12T19:28:35.508Z,22.40
2022-08-12T19:31:58.961Z,22.30
2022-08-12T19:38:02.810Z,21.90
2022-08-12T19:40:20.465Z,21.70
2022-08-12T19:43:00.893Z,21.60
2022-08-12T19:45:42.229Z,21.30
2022-08-12T19:48:17.298Z,21.20
2022-08-12T19:50:49.836Z,21.10
2022-08-12T19:53:18.610Z,21.10
2022-08-12T19:55:50.823Z,21.00
2022-08-12T19:58:20.328Z,21.00
2022-08-12T20:00:53.196Z,20.90
2022-08-12T20:03:38.663Z,20.80
2022-08-12T20:06:14.025Z,20.70
2022-08-12T20:08:49.055Z,20.60
2022-08-12T20:12:14.576Z,20.50
2022-08-12T20:14:14.030Z,20.40
2022-08-12T20:16:51.694Z,20.40
2022-08-12T20:19:21.324Z,20.40
2022-08-12T20:21:50.852Z,20.30
2022-08-12T20:24:19.401Z,20.20
2022-08-12T20:26:46.692Z,20.10
2022-08-12T20:29:15.068Z,20.00
2022-08-12T20:31:44.021Z,20.10
2022-08-12T20:34:12.681Z,20.00
2022-08-12T20:36:44.768Z,20.00
2022-08-12T20:39:34.434Z,19.90
2022-08-12T20:42:07.088Z,19.70
2022-08-12T20:44:40.261Z,19.60
2022-08-12T20:47:20.094Z,19.40
2022-08-12T20:49:56.048Z,19.30
2022-08-12T20:52:29.089Z,19.30
2022-08-12T20:54:57.659Z,19.20
2022-08-12T20:57:24.922Z,19.00
2022-08-12T21:00:14.179Z,19.00
2022-08-12T21:02:43.573Z,18.90
2022-08-12T21:06:09.902Z,18.90
2022-08-12T21:08:18.987Z,18.80
2022-08-12T21:10:49.156Z,18.80
2022-08-12T21:13:20.663Z,18.80
2022-08-12T21:15:55.177Z,18.80
2022-08-12T21:18:29.163Z,18.60
2022-08-12T21:20:58.985Z,18.60
2022-08-12T21:23:31.011Z,18.50
2022-08-12T21:26:06.017Z,18.50
2022-08-12T21:28:38.147Z,18.40
2022-08-12T21:32:35.306Z,18.30
2022-08-12T21:34:07.886Z,18.30
2022-08-12T21:36:39.840Z,18.10
2022-08-12T21:39:18.193Z,18.10
2022-08-12T21:41:50.271Z,18.20
2022-08-12T21:44:24.555Z,18.10
2022-08-12T21:47:20.473Z,17.90
2022-08-12T21:50:02.186Z,17.90
2022-08-12T21:52:34.881Z,17.80
2022-08-12T21:55:08.651Z,17.70
2022-08-12T21:57:50.931Z,17.60
2022-08-12T22:00:32.895Z,17.60
2022-08-12T22:04:02.205Z,17.60
2022-08-12T22:06:20.030Z,17.50
2022-08-12T22:09:02.029Z,17.50
2022-08-12T22:11:41.813Z,17.40
2022-08-12T22:14:21.549Z,17.50
2022-08-12T22:16:52.246Z,17.50
2022-08-12T22:19:22.810Z,17.40
2022-08-12T22:21:55.548Z,17.40
2022-08-12T22:24:26.231Z,17.30
2022-08-12T22:26:58.162Z,17.40
2022-08-12T22:29:43.653Z,17.30
2022-08-12T22:32:12.049Z,17.30
2022-08-12T22:34:39.319Z,17.20
2022-08-12T22:37:11.175Z,17.20
2022-08-12T22:39:46.459Z,17.10
2022-08-12T22:42:34.239Z,17.00
2022-08-12T22:45:33.385Z,17.00
2022-08-12T22:48:21.971Z,16.90
2022-08-12T22:50:56.416Z,16.80
2022-08-12T22:53:36.201Z,16.80
2022-08-12T22:56:06.323Z,16.70
2022-08-12T22:58:36.595Z,16.70
2022-08-12T23:01:08.425Z,16.60
2022-08-12T23:03:47.925Z,16.60
2022-08-12T23:06:16.628Z,16.40
2022-08-12T23:08:43.449Z,16.30
2022-08-12T23:11:10.334Z,16.40
2022-08-12T23:13:49.048Z,16.30
2022-08-12T23:16:30.837Z,16.30
2022-08-12T23:19:09.580Z,16.10
2022-08-12T23:22:03.792Z,16.10
2022-08-12T23:24:26.369Z,16.10
2022-08-12T23:27:11.729Z,16.00
2022-08-12T23:29:42.824Z,16.10
2022-08-12T23:32:13.489Z,16.00
2022-08-12T23:35:02.618Z,16.00
2022-08-12T23:37:46.505Z,15.90
2022-08-12T23:40:18.194Z,15.90
2022-08-12T23:42:48.078Z,15.80
2022-08-12T23:45:20.461Z,15.70
2022-08-12T23:47:59.826Z,15.80
2022-08-12T23:50:34.184Z,15.70
2022-08-12T23:53:03.418Z,15.70
2022-08-12T23:55:35.786Z,15.60
2022-08-12T23:58:21.772Z,15.60
